Mansfield Lahm Regional Airport
KMFD : now visible

Airfield :











YOU CAN JOIN US ON...

 
LOGIN :

Register | Disclaimer

   EN    FR    IT 

 









Legend :    VFR   Marginal VFR   IFR   Intensive IFR   Very Intensive IFR
Visi :
Ceiling :
>= 8 km
>= 3000ft
5 to 8 km
1000 to 3000 ft
1500m to 5 km
500 to 1000 ft
800 to 1500m
200 to 500 ft
< 800m
< 200 ft
Symbols :   Thunderstorms  Fog  Heavy snow  Heavy precipitations  Wind > 20 kt







- Airport Elevation : 1297 ft


KMFD - Mansfield Lahm Regional

CURRENT METAR :
  • 220152Z 23003KT 10SM OVC110 11/07 A3016 RMK AO2 SLP220 T01060067

EXPIRED METARs :
  • 220052Z 00000KT 10SM CLR 11/06 A3015 RMK AO2 SLP216 T01060056
  • 212352Z 00000KT 10SM CLR 13/06 A3013 RMK AO2 SLP208 T01280056 10144 20094 53008

TAF KMFD
Valid from the 22 at 00:00 until the 23 at 00:00 UTC


212333Z 2200/2224 VRB03KT P6SM SCT110
FM221400 16004KT P6SM BKN250
KZOB FIR / North America



MET'MAP, your aeronautical weather chart ! - Copyright ORBIFLY December 2007 - Disclaimer

ORBIFLY MET'MAP TEAM :

Programming & Development : Alexandra Zaïnal
Concept & Development : Baudouin d'Aumeries
Co-Development & Prog : Marc-Olivier Méhu
Technical & hardware support : Manuel Goepfert

Contact : metmap@orbifly.com




SOURCES & CREDITS :

   NOAA       Earth
Advisory